Airport View

Enter AWOS ICAO identifier for current METAR.

ex. KFNL

KANQ 101515Z AUTO 16007KT 10SM CLR 27/22 A3000 RMK AO2

10 Aug 2020 15:21

Frequency: 118.175

Phone: 260-668-5630

Other Area AWOS: KC62 - KOEB - KIRS - KGWB

TAF KFWA 101120Z 1012/1112 20005KT P6SM SCT080 BKN250 FM101500 21010KT P6SM BKN050 FM110000 22008KT P6SM BKN040 TEMPO 1100/1104 3SM TSRA BR OVC020CB